x

Seal Rocks - Between Montague And Hinchinbrook Islands, Ak (46061) Wave Buoy

6:50pm - Mon 30th Mar 2015 All times are AKDT. -8 hours from GMT.

  • Sig Wave height 5.2ft
  • Swell Direction
  • Peak Period 11s
  • Average Period 7s
  • Wind
    4mph, 7mph gusts
  • Sea Temp 43°f
  • Air Temp 42°f
  • Sea Pressure 1001.5mb
  • Seal Rocks - Between Montague And Hinchinbrook Islands, Ak
  • Seal Rocks - Between Montague And Hinchinbrook Islands, Ak

More Historic Weather Station data

Upgrade to MSW Pro to gain access to the past 30 days of data for over 8000 Wavebouys and Weather Stations around the globe.

Join Pro

Comparision Forecast

View Surf forecast
   
Mon 03/30 6:50pm 5ft 11s 7s 4 7 mph 1001.5mb 43f 42f
5:50pm 5.5ft 10s 7s 2
mph
1002mb 43f 41f
4:50pm 5ft 10s 7s 9 11 mph 1002.6mb 43f 41f
3:50pm 5.5ft 11s 7s 11 13 mph 1002.9mb 43f 42f
2:50pm 5.5ft 11s 8s 11 13 mph 1003.2mb 42f 42f
1:50pm 5.5ft 11s 8s 11 13 mph 1003.4mb 42f 42f
12:50pm 6ft 10s 7s 16
mph
1003.5mb 42f 41f
11:50am 5.5ft 10s 8s 18 20 mph 1003.5mb 42f 41f
10:50am 6ft 10s 8s 18 22 mph 1003.5mb 42f 41f
9:50am 5.5ft 10s 7s 20 25 mph 1003.6mb 42f 40f
8:50am 6ft 11s 7s 9 13 mph 1003.8mb 42f 38f
7:50am 6ft 11s 7s 11 18 mph 1004mb 42f 39f
6:50am 6ft 11s 7s 20 25 mph 1003.5mb 42f 40f
5:50am 6ft 10s 7s 11 18 mph 1003.9mb 42f 40f
4:50am 6.5ft 9s 7s 13 18 mph 1004.1mb 42f 39f
3:50am 6ft 12s 7s 18 22 mph 1003.6mb 42f 41f
2:50am 6ft 13s 7s 16 20 mph 1003.7mb 42f 41f
1:50am 6.5ft 9s 7s 20 22 mph 1003.4mb 42f 41f
12:50am 7ft 11s 8s 18 20 mph 1003mb 42f 41f
Sun 03/29 11:50pm 6.5ft 11s 8s 18 20 mph 1002.7mb 42f 41f
10:50pm 6.5ft 10s 8s 18 20 mph 1002mb 42f 41f
9:50pm 7ft 10s 7s 20 25 mph 1001.6mb 42f 40f
8:50pm 7ft 11s 7s 22 25 mph 1000.9mb 42f 40f
7:50pm 8ft 9s 7s 20 25 mph 1000.3mb 42f 41f
6:50pm 8.5ft 11s 7s 18 22 mph 1000mb 42f 41f
5:50pm 8.5ft 11s 7s 22 29 mph 999.6mb 42f 42f
4:50pm 9ft 11s 7s 22 27 mph 999.5mb 42f 41f
3:50pm 9ft 12s 7s 25 31 mph 998.7mb 42f 42f
2:50pm 8.5ft 12s 7s 29 36 mph 997.9mb 42f 42f
1:50pm 8ft 11s 7s 27 34 mph 997.3mb 42f 42f
12:50pm 8ft 10s 7s 27 31 mph 996.6mb 42f 43f
11:50am 6ft 11s 7s 27 31 mph 995.8mb 42f 43f
10:50am 7ft 11s 8s 25 29 mph 995.5mb 42f 41f
9:50am 6.5ft 10s 8s 22 29 mph 994.8mb 42f 41f
8:50am 8ft 11s 8s 25 29 mph 994.2mb 42f 41f
7:50am 7.5ft 11s 8s 25 29 mph 993.8mb 42f 40f
6:50am 10ft 11s 8s 29 36 mph 993.4mb 42f 40f
5:50am 10ft 13s 8s 27 34 mph 993.1mb 42f 40f
4:50am 11ft 11s 8s 27 31 mph 992.9mb 42f 40f
3:50am 13ft 11s 8s 29 34 mph 992.8mb 42f 40f
2:50am 13ft 11s 8s 29 36 mph 992.9mb 42f 40f
1:50am 11ft 11s 8s 29 36 mph 993mb 42f 40f
12:50am 8ft 11s 8s 16 20 mph 993.2mb 42f 40f
Sat 03/28 11:50pm 7ft 11s 8s 20 25 mph 992.9mb 42f 39f
10:50pm 8ft 11s 8s 7 11 mph 993.3mb 42f 42f
9:50pm 8ft 11s 8s 9 13 mph 993.6mb 42f 42f
8:50pm 8ft 11s 8s 13 16 mph 993.5mb 42f 42f
7:50pm 8.5ft 10s 8s 13 18 mph 993.9mb 42f 42f
6:50pm 10ft 11s 8s 11 18 mph 994.8mb 42f 42f
5:50pm 11ft 11s 8s 9 16 mph 996.1mb 42f 44f
4:50pm 9ft 11s 7s 11 18 mph 997.2mb 42f 44f
3:50pm 9ft 11s 7s 16 20 mph 998.3mb 42f 43f
2:50pm 8.5ft 10s 7s 20 25 mph 999.2mb 42f 42f
1:50pm 9ft 11s 7s 20 27 mph 1000.1mb 42f 41f
12:50pm 8ft 8s 7s 22 31 mph 1000.5mb 42f 41f
11:50am 7ft 8s 6s 25 34 mph 1000.8mb 42f 40f
10:50am 6ft 8s 6s 25 31 mph 1001mb 42f 40f
9:50am 5.5ft 8s 6s 25 29 mph 1001.2mb 42f 40f
8:50am 6ft 7s 6s 25 29 mph 1001.5mb 42f 40f
7:50am 5.5ft 7s 6s 27 34 mph 1001.6mb 42f 41f
6:50am 5.5ft 10s 5s 27 34 mph 1001.5mb 42f 40f
5:50am 6ft 10s 6s 27 31 mph 1002.2mb 42f 40f
4:50am 5.5ft 10s 6s 25 31 mph 1002.6mb 42f 40f
3:50am 6ft 10s 5s 27 31 mph 1002.9mb 42f 40f
2:50am 6ft 11s 6s 25 29 mph 1003.3mb 42f 40f
1:50am 6ft 10s 6s 20 27 mph 1003.5mb 42f 40f
12:50am 6ft 10s 6s 27 31 mph 1003.6mb 42f 40f
Fri 03/27 11:50pm 5ft 11s 6s 25 31 mph 1003.9mb 42f 40f
10:50pm 5.5ft 10s 6s 25 31 mph 1004.1mb 42f 40f
9:50pm 5.5ft 10s 6s 22 27 mph 1004.1mb 42f 40f
8:50pm 5.5ft 10s 6s 25 29 mph 1003.9mb 42f 40f
7:50pm 5.5ft 10s 7s 25 29 mph 1004.1mb 42f 41f
6:50pm 6ft 9s 7s 22 27 mph 1004.2mb 42f 40f
5:50pm 6.5ft 10s 7s 22 27 mph 1004.5mb 42f 40f
4:50pm 6ft 11s 6s 22 27 mph 1005.2mb 42f 39f
3:50pm 6ft 9s 6s 20 25 mph 1005.5mb 42f 39f
2:50pm 6ft 10s 6s 22 27 mph 1005.6mb 42f 40f
1:50pm 6ft 11s 7s 16 18 mph 1005.9mb 42f 40f
12:50pm 7ft 10s 7s 22 29 mph 1005.7mb 42f 39f
11:50am 7ft 11s 7s 18 22 mph 1005.5mb 42f 40f
10:50am 7.5ft 11s 8s 20 22 mph 1005.4mb 42f 39f
9:50am 6ft 11s 7s 22 29 mph 1005mb 42f 39f
8:50am 6.5ft 11s 8s 18 22 mph 1004.9mb 42f 40f
7:50am 7.5ft 10s 8s 11 13 mph 1004.9mb 42f 42f
6:50am 7ft 11s 8s 11 16 mph 1004.8mb 42f 42f
5:50am 7.5ft 11s 8s 11 16 mph 1004.9mb 42f 42f
4:50am 7.5ft 10s 8s 13 16 mph 1004.9mb 42f 42f